sensor_id;sensor_type;location;lat;lon;timestamp;P1;durP1;ratioP1;P2;durP2;ratioP2
11141;SDS011;5625;50.122;19.864;2022-11-15T00:00:15;33.37;;;17.33;;
11141;SDS011;5625;50.122;19.864;2022-11-15T00:02:44;32.33;;;17.37;;
11141;SDS011;5625;50.122;19.864;2022-11-15T00:05:12;135.57;;;18.93;;
11141;SDS011;5625;50.122;19.864;2022-11-15T00:07:41;30.40;;;16.37;;
11141;SDS011;5625;50.122;19.864;2022-11-15T00:10:21;68.07;;;16.93;;
11141;SDS011;5625;50.122;19.864;2022-11-15T00:12:50;27.90;;;15.87;;
11141;SDS011;5625;50.122;19.864;2022-11-15T00:15:18;31.03;;;15.03;;
11141;SDS011;5625;50.122;19.864;2022-11-15T00:17:48;27.07;;;15.07;;
11141;SDS011;5625;50.122;19.864;2022-11-15T00:20:18;22.10;;;15.47;;
11141;SDS011;5625;50.122;19.864;2022-11-15T00:22:50;22.70;;;14.63;;
11141;SDS011;5625;50.122;19.864;2022-11-15T00:25:18;24.50;;;14.93;;
11141;SDS011;5625;50.122;19.864;2022-11-15T00:27:46;22.73;;;14.73;;
11141;SDS011;5625;50.122;19.864;2022-11-15T00:30:14;31.57;;;14.23;;
11141;SDS011;5625;50.122;19.864;2022-11-15T00:32:49;23.83;;;13.97;;
11141;SDS011;5625;50.122;19.864;2022-11-15T00:35:24;62.13;;;15.80;;
11141;SDS011;5625;50.122;19.864;2022-11-15T00:37:54;20.27;;;14.70;;
11141;SDS011;5625;50.122;19.864;2022-11-15T00:40:22;19.13;;;14.53;;
11141;SDS011;5625;50.122;19.864;2022-11-15T00:42:51;98.53;;;16.23;;
11141;SDS011;5625;50.122;19.864;2022-11-15T00:45:19;20.40;;;14.40;;
11141;SDS011;5625;50.122;19.864;2022-11-15T00:47:47;52.30;;;15.70;;
11141;SDS011;5625;50.122;19.864;2022-11-15T00:50:15;58.83;;;15.53;;
11141;SDS011;5625;50.122;19.864;2022-11-15T00:52:44;22.00;;;15.20;;
11141;SDS011;5625;50.122;19.864;2022-11-15T00:55:14;18.77;;;14.90;;
11141;SDS011;5625;50.122;19.864;2022-11-15T00:57:43;31.93;;;14.77;;
11141;SDS011;5625;50.122;19.864;2022-11-15T01:00:12;27.67;;;13.97;;
11141;SDS011;5625;50.122;19.864;2022-11-15T01:02:41;33.17;;;13.97;;
11141;SDS011;5625;50.122;19.864;2022-11-15T01:05:09;23.50;;;13.67;;
11141;SDS011;5625;50.122;19.864;2022-11-15T01:07:38;19.40;;;13.70;;
11141;SDS011;5625;50.122;19.864;2022-11-15T01:10:06;22.63;;;12.87;;
11141;SDS011;5625;50.122;19.864;2022-11-15T01:12:36;19.93;;;13.50;;
11141;SDS011;5625;50.122;19.864;2022-11-15T01:15:05;19.40;;;12.70;;
11141;SDS011;5625;50.122;19.864;2022-11-15T01:17:34;16.37;;;13.03;;
11141;SDS011;5625;50.122;19.864;2022-11-15T01:20:16;31.83;;;13.07;;
11141;SDS011;5625;50.122;19.864;2022-11-15T01:22:51;39.00;;;12.90;;
11141;SDS011;5625;50.122;19.864;2022-11-15T01:25:19;29.70;;;13.50;;
11141;SDS011;5625;50.122;19.864;2022-11-15T01:27:49;23.33;;;14.17;;
11141;SDS011;5625;50.122;19.864;2022-11-15T01:30:18;56.47;;;13.87;;
11141;SDS011;5625;50.122;19.864;2022-11-15T01:32:53;33.17;;;13.43;;
11141;SDS011;5625;50.122;19.864;2022-11-15T01:35:27;50.83;;;13.37;;
11141;SDS011;5625;50.122;19.864;2022-11-15T01:38:01;26.80;;;12.87;;
11141;SDS011;5625;50.122;19.864;2022-11-15T01:40:29;17.23;;;14.10;;
11141;SDS011;5625;50.122;19.864;2022-11-15T01:42:58;17.83;;;12.67;;
11141;SDS011;5625;50.122;19.864;2022-11-15T01:45:26;28.27;;;12.47;;
11141;SDS011;5625;50.122;19.864;2022-11-15T01:47:54;20.27;;;12.63;;
11141;SDS011;5625;50.122;19.864;2022-11-15T01:50:24;25.53;;;11.60;;
11141;SDS011;5625;50.122;19.864;2022-11-15T01:52:56;15.63;;;11.97;;
11141;SDS011;5625;50.122;19.864;2022-11-15T01:55:25;33.23;;;12.53;;
11141;SDS011;5625;50.122;19.864;2022-11-15T01:57:56;24.97;;;11.17;;
11141;SDS011;5625;50.122;19.864;2022-11-15T02:00:28;27.07;;;12.17;;
11141;SDS011;5625;50.122;19.864;2022-11-15T02:03:04;69.63;;;13.30;;
11141;SDS011;5625;50.122;19.864;2022-11-15T02:05:32;37.53;;;12.67;;
11141;SDS011;5625;50.122;19.864;2022-11-15T02:08:02;53.43;;;12.60;;
11141;SDS011;5625;50.122;19.864;2022-11-15T02:10:31;153.97;;;14.43;;
11141;SDS011;5625;50.122;19.864;2022-11-15T02:12:59;14.43;;;11.63;;
11141;SDS011;5625;50.122;19.864;2022-11-15T02:15:37;14.17;;;11.30;;
11141;SDS011;5625;50.122;19.864;2022-11-15T02:18:30;13.37;;;11.10;;
11141;SDS011;5625;50.122;19.864;2022-11-15T02:21:08;13.90;;;11.03;;
11141;SDS011;5625;50.122;19.864;2022-11-15T02:30:00;13.93;;;11.03;;
11141;SDS011;5625;50.122;19.864;2022-11-15T02:32:36;13.03;;;10.63;;
11141;SDS011;5625;50.122;19.864;2022-11-15T02:35:13;13.73;;;11.23;;
11141;SDS011;5625;50.122;19.864;2022-11-15T02:37:51;19.37;;;10.50;;
11141;SDS011;5625;50.122;19.864;2022-11-15T02:40:25;16.20;;;11.67;;
11141;SDS011;5625;50.122;19.864;2022-11-15T02:43:04;12.40;;;10.07;;
11141;SDS011;5625;50.122;19.864;2022-11-15T02:45:54;13.20;;;11.00;;
11141;SDS011;5625;50.122;19.864;2022-11-15T02:48:30;15.70;;;10.43;;
11141;SDS011;5625;50.122;19.864;2022-11-15T02:50:59;14.40;;;11.23;;
11141;SDS011;5625;50.122;19.864;2022-11-15T02:53:28;31.73;;;12.03;;
11141;SDS011;5625;50.122;19.864;2022-11-15T02:55:57;13.23;;;10.70;;
11141;SDS011;5625;50.122;19.864;2022-11-15T02:58:36;18.47;;;11.17;;
11141;SDS011;5625;50.122;19.864;2022-11-15T03:01:22;13.90;;;11.37;;
11141;SDS011;5625;50.122;19.864;2022-11-15T03:04:07;14.13;;;11.33;;
11141;SDS011;5625;50.122;19.864;2022-11-15T03:06:56;84.03;;;14.17;;
11141;SDS011;5625;50.122;19.864;2022-11-15T03:09:31;20.53;;;13.03;;
11141;SDS011;5625;50.122;19.864;2022-11-15T03:12:03;17.93;;;13.33;;
11141;SDS011;5625;50.122;19.864;2022-11-15T03:14:39;39.37;;;13.60;;
11141;SDS011;5625;50.122;19.864;2022-11-15T03:17:16;17.50;;;12.67;;
11141;SDS011;5625;50.122;19.864;2022-11-15T03:19:52;16.70;;;12.90;;
11141;SDS011;5625;50.122;19.864;2022-11-15T03:22:29;26.67;;;12.30;;
11141;SDS011;5625;50.122;19.864;2022-11-15T03:25:04;19.17;;;12.67;;
11141;SDS011;5625;50.122;19.864;2022-11-15T03:27:35;44.10;;;13.23;;
11141;SDS011;5625;50.122;19.864;2022-11-15T03:30:07;17.97;;;13.07;;
11141;SDS011;5625;50.122;19.864;2022-11-15T03:32:38;17.20;;;13.43;;
11141;SDS011;5625;50.122;19.864;2022-11-15T03:35:12;19.20;;;13.90;;
11141;SDS011;5625;50.122;19.864;2022-11-15T03:37:44;90.77;;;15.10;;
11141;SDS011;5625;50.122;19.864;2022-11-15T03:40:17;18.83;;;14.47;;
11141;SDS011;5625;50.122;19.864;2022-11-15T03:42:51;40.20;;;15.20;;
11141;SDS011;5625;50.122;19.864;2022-11-15T03:45:28;64.93;;;15.37;;
11141;SDS011;5625;50.122;19.864;2022-11-15T03:47:59;20.87;;;15.53;;
11141;SDS011;5625;50.122;19.864;2022-11-15T03:50:33;22.03;;;15.23;;
11141;SDS011;5625;50.122;19.864;2022-11-15T03:53:02;21.93;;;15.17;;
11141;SDS011;5625;50.122;19.864;2022-11-15T03:55:31;23.30;;;15.00;;
11141;SDS011;5625;50.122;19.864;2022-11-15T03:58:01;18.40;;;14.37;;
11141;SDS011;5625;50.122;19.864;2022-11-15T04:00:29;17.87;;;13.87;;
11141;SDS011;5625;50.122;19.864;2022-11-15T04:02:58;19.07;;;14.20;;
11141;SDS011;5625;50.122;19.864;2022-11-15T04:05:26;17.93;;;14.30;;
11141;SDS011;5625;50.122;19.864;2022-11-15T04:07:55;18.67;;;14.00;;
11141;SDS011;5625;50.122;19.864;2022-11-15T04:10:24;18.57;;;14.33;;
11141;SDS011;5625;50.122;19.864;2022-11-15T04:12:52;19.20;;;13.23;;
11141;SDS011;5625;50.122;19.864;2022-11-15T04:15:20;17.80;;;14.20;;
11141;SDS011;5625;50.122;19.864;2022-11-15T04:17:51;19.80;;;13.90;;
11141;SDS011;5625;50.122;19.864;2022-11-15T04:20:21;18.20;;;13.90;;
11141;SDS011;5625;50.122;19.864;2022-11-15T04:23:15;38.23;;;15.10;;
11141;SDS011;5625;50.122;19.864;2022-11-15T04:26:02;22.10;;;14.30;;
11141;SDS011;5625;50.122;19.864;2022-11-15T04:28:39;18.30;;;14.37;;
11141;SDS011;5625;50.122;19.864;2022-11-15T04:31:27;20.77;;;15.20;;
11141;SDS011;5625;50.122;19.864;2022-11-15T04:33:56;18.33;;;14.43;;
11141;SDS011;5625;50.122;19.864;2022-11-15T04:36:24;16.97;;;13.80;;
11141;SDS011;5625;50.122;19.864;2022-11-15T04:39:11;23.97;;;14.73;;
11141;SDS011;5625;50.122;19.864;2022-11-15T04:41:39;18.87;;;14.57;;
11141;SDS011;5625;50.122;19.864;2022-11-15T04:44:07;26.80;;;15.37;;
11141;SDS011;5625;50.122;19.864;2022-11-15T04:46:42;18.13;;;14.17;;
11141;SDS011;5625;50.122;19.864;2022-11-15T04:49:10;17.97;;;14.13;;
11141;SDS011;5625;50.122;19.864;2022-11-15T04:51:38;18.23;;;14.43;;
11141;SDS011;5625;50.122;19.864;2022-11-15T04:54:06;17.90;;;13.63;;
11141;SDS011;5625;50.122;19.864;2022-11-15T04:56:35;16.97;;;13.43;;
11141;SDS011;5625;50.122;19.864;2022-11-15T04:59:03;17.80;;;12.83;;
11141;SDS011;5625;50.122;19.864;2022-11-15T05:01:32;15.37;;;13.27;;
11141;SDS011;5625;50.122;19.864;2022-11-15T05:04:10;15.83;;;13.07;;
11141;SDS011;5625;50.122;19.864;2022-11-15T05:06:53;18.10;;;14.10;;
11141;SDS011;5625;50.122;19.864;2022-11-15T05:09:21;61.60;;;13.70;;
11141;SDS011;5625;50.122;19.864;2022-11-15T05:11:51;19.17;;;14.77;;
11141;SDS011;5625;50.122;19.864;2022-11-15T05:14:25;27.80;;;13.63;;
11141;SDS011;5625;50.122;19.864;2022-11-15T05:16:54;28.37;;;13.70;;
11141;SDS011;5625;50.122;19.864;2022-11-15T05:19:23;31.73;;;15.70;;
11141;SDS011;5625;50.122;19.864;2022-11-15T05:21:51;39.43;;;14.23;;
11141;SDS011;5625;50.122;19.864;2022-11-15T05:24:21;25.10;;;13.83;;
11141;SDS011;5625;50.122;19.864;2022-11-15T05:26:51;19.17;;;14.23;;
11141;SDS011;5625;50.122;19.864;2022-11-15T05:29:19;17.50;;;13.57;;
11141;SDS011;5625;50.122;19.864;2022-11-15T05:31:47;16.13;;;13.03;;
11141;SDS011;5625;50.122;19.864;2022-11-15T05:34:22;45.97;;;14.33;;
11141;SDS011;5625;50.122;19.864;2022-11-15T05:36:53;17.30;;;13.60;;
11141;SDS011;5625;50.122;19.864;2022-11-15T05:39:21;23.60;;;14.93;;
11141;SDS011;5625;50.122;19.864;2022-11-15T05:41:51;41.33;;;14.37;;
11141;SDS011;5625;50.122;19.864;2022-11-15T05:44:28;33.00;;;13.20;;
11141;SDS011;5625;50.122;19.864;2022-11-15T05:46:56;20.70;;;13.57;;
11141;SDS011;5625;50.122;19.864;2022-11-15T05:49:26;45.47;;;14.40;;
11141;SDS011;5625;50.122;19.864;2022-11-15T05:51:57;35.77;;;14.17;;
11141;SDS011;5625;50.122;19.864;2022-11-15T05:54:32;23.70;;;14.77;;
11141;SDS011;5625;50.122;19.864;2022-11-15T05:57:05;22.47;;;13.73;;
11141;SDS011;5625;50.122;19.864;2022-11-15T05:59:34;22.03;;;14.80;;
11141;SDS011;5625;50.122;19.864;2022-11-15T06:02:02;21.67;;;13.93;;
11141;SDS011;5625;50.122;19.864;2022-11-15T06:04:31;24.63;;;13.57;;
11141;SDS011;5625;50.122;19.864;2022-11-15T06:07:05;20.23;;;14.43;;
11141;SDS011;5625;50.122;19.864;2022-11-15T06:09:34;17.67;;;14.33;;
11141;SDS011;5625;50.122;19.864;2022-11-15T06:12:02;21.97;;;14.43;;
11141;SDS011;5625;50.122;19.864;2022-11-15T06:14:32;27.37;;;14.60;;
11141;SDS011;5625;50.122;19.864;2022-11-15T06:17:00;52.07;;;15.20;;
11141;SDS011;5625;50.122;19.864;2022-11-15T06:19:36;61.07;;;15.63;;
11141;SDS011;5625;50.122;19.864;2022-11-15T06:22:04;69.23;;;16.13;;
11141;SDS011;5625;50.122;19.864;2022-11-15T06:24:32;23.17;;;15.83;;
11141;SDS011;5625;50.122;19.864;2022-11-15T06:27:00;22.93;;;14.50;;
11141;SDS011;5625;50.122;19.864;2022-11-15T06:29:29;50.00;;;15.00;;
11141;SDS011;5625;50.122;19.864;2022-11-15T06:31:58;27.13;;;15.20;;
11141;SDS011;5625;50.122;19.864;2022-11-15T06:34:26;21.90;;;15.03;;
11141;SDS011;5625;50.122;19.864;2022-11-15T06:36:54;27.63;;;15.40;;
11141;SDS011;5625;50.122;19.864;2022-11-15T06:39:22;23.03;;;15.07;;
11141;SDS011;5625;50.122;19.864;2022-11-15T06:41:50;26.37;;;16.33;;
11141;SDS011;5625;50.122;19.864;2022-11-15T06:44:21;19.97;;;14.90;;
11141;SDS011;5625;50.122;19.864;2022-11-15T06:46:49;24.33;;;15.57;;
11141;SDS011;5625;50.122;19.864;2022-11-15T06:49:19;36.83;;;15.33;;
11141;SDS011;5625;50.122;19.864;2022-11-15T06:51:47;64.43;;;16.00;;
11141;SDS011;5625;50.122;19.864;2022-11-15T06:54:16;21.20;;;15.27;;
11141;SDS011;5625;50.122;19.864;2022-11-15T06:56:44;21.77;;;15.13;;
11141;SDS011;5625;50.122;19.864;2022-11-15T06:59:12;22.87;;;15.17;;
11141;SDS011;5625;50.122;19.864;2022-11-15T07:01:40;18.87;;;15.13;;
11141;SDS011;5625;50.122;19.864;2022-11-15T07:04:08;25.23;;;15.37;;
11141;SDS011;5625;50.122;19.864;2022-11-15T07:06:37;21.60;;;15.07;;
11141;SDS011;5625;50.122;19.864;2022-11-15T07:09:05;21.30;;;15.27;;
11141;SDS011;5625;50.122;19.864;2022-11-15T07:11:33;18.50;;;14.23;;
11141;SDS011;5625;50.122;19.864;2022-11-15T07:14:01;18.37;;;14.40;;
11141;SDS011;5625;50.122;19.864;2022-11-15T07:16:29;25.40;;;15.33;;
11141;SDS011;5625;50.122;19.864;2022-11-15T07:18:57;22.20;;;14.57;;
11141;SDS011;5625;50.122;19.864;2022-11-15T07:21:26;32.93;;;14.37;;
11141;SDS011;5625;50.122;19.864;2022-11-15T07:24:08;18.63;;;14.40;;
11141;SDS011;5625;50.122;19.864;2022-11-15T07:26:43;27.87;;;13.53;;
11141;SDS011;5625;50.122;19.864;2022-11-15T07:29:11;18.63;;;14.23;;
11141;SDS011;5625;50.122;19.864;2022-11-15T07:31:39;29.43;;;14.80;;
11141;SDS011;5625;50.122;19.864;2022-11-15T07:34:07;19.83;;;15.07;;
11141;SDS011;5625;50.122;19.864;2022-11-15T07:36:36;19.80;;;15.47;;
11141;SDS011;5625;50.122;19.864;2022-11-15T07:39:04;55.20;;;16.00;;
11141;SDS011;5625;50.122;19.864;2022-11-15T07:41:33;34.03;;;15.53;;
11141;SDS011;5625;50.122;19.864;2022-11-15T07:44:02;27.13;;;15.27;;
11141;SDS011;5625;50.122;19.864;2022-11-15T07:46:36;33.90;;;16.33;;
11141;SDS011;5625;50.122;19.864;2022-11-15T07:49:05;18.20;;;15.13;;
11141;SDS011;5625;50.122;19.864;2022-11-15T07:51:33;27.23;;;15.90;;
11141;SDS011;5625;50.122;19.864;2022-11-15T07:54:01;20.10;;;15.33;;
11141;SDS011;5625;50.122;19.864;2022-11-15T07:56:29;20.03;;;15.80;;
11141;SDS011;5625;50.122;19.864;2022-11-15T07:58:59;19.30;;;16.03;;
11141;SDS011;5625;50.122;19.864;2022-11-15T08:01:27;21.40;;;16.57;;
11141;SDS011;5625;50.122;19.864;2022-11-15T08:03:55;22.20;;;16.43;;
11141;SDS011;5625;50.122;19.864;2022-11-15T08:06:30;31.30;;;16.83;;
11141;SDS011;5625;50.122;19.864;2022-11-15T08:08:59;19.53;;;15.73;;
11141;SDS011;5625;50.122;19.864;2022-11-15T08:11:27;20.67;;;16.40;;
11141;SDS011;5625;50.122;19.864;2022-11-15T08:13:55;17.63;;;14.63;;
11141;SDS011;5625;50.122;19.864;2022-11-15T08:16:25;18.83;;;15.70;;
11141;SDS011;5625;50.122;19.864;2022-11-15T08:18:53;19.40;;;15.77;;
11141;SDS011;5625;50.122;19.864;2022-11-15T08:21:21;20.00;;;14.93;;
11141;SDS011;5625;50.122;19.864;2022-11-15T08:23:50;20.40;;;15.67;;
11141;SDS011;5625;50.122;19.864;2022-11-15T08:26:18;21.23;;;16.40;;
11141;SDS011;5625;50.122;19.864;2022-11-15T08:28:46;22.03;;;16.53;;
11141;SDS011;5625;50.122;19.864;2022-11-15T08:31:14;21.50;;;16.43;;
11141;SDS011;5625;50.122;19.864;2022-11-15T08:33:45;22.70;;;16.63;;
11141;SDS011;5625;50.122;19.864;2022-11-15T08:36:15;20.67;;;16.47;;
11141;SDS011;5625;50.122;19.864;2022-11-15T08:38:44;19.80;;;16.00;;
11141;SDS011;5625;50.122;19.864;2022-11-15T08:41:12;30.60;;;17.53;;
11141;SDS011;5625;50.122;19.864;2022-11-15T08:43:44;21.53;;;16.63;;
11141;SDS011;5625;50.122;19.864;2022-11-15T08:46:13;20.40;;;16.83;;
11141;SDS011;5625;50.122;19.864;2022-11-15T08:48:46;19.83;;;16.57;;
11141;SDS011;5625;50.122;19.864;2022-11-15T08:51:21;18.43;;;14.63;;
11141;SDS011;5625;50.122;19.864;2022-11-15T08:53:50;18.20;;;14.73;;
11141;SDS011;5625;50.122;19.864;2022-11-15T08:56:18;17.60;;;15.23;;
11141;SDS011;5625;50.122;19.864;2022-11-15T08:58:46;18.67;;;15.47;;
11141;SDS011;5625;50.122;19.864;2022-11-15T09:01:21;18.80;;;16.07;;
11141;SDS011;5625;50.122;19.864;2022-11-15T09:03:51;19.87;;;16.00;;
11141;SDS011;5625;50.122;19.864;2022-11-15T09:06:19;20.47;;;15.30;;
11141;SDS011;5625;50.122;19.864;2022-11-15T09:08:47;17.63;;;15.33;;
11141;SDS011;5625;50.122;19.864;2022-11-15T09:11:15;17.50;;;14.63;;
11141;SDS011;5625;50.122;19.864;2022-11-15T09:13:46;18.63;;;15.50;;
11141;SDS011;5625;50.122;19.864;2022-11-15T09:16:17;21.43;;;16.43;;
11141;SDS011;5625;50.122;19.864;2022-11-15T09:18:45;19.20;;;16.10;;
11141;SDS011;5625;50.122;19.864;2022-11-15T09:21:21;18.67;;;15.80;;
11141;SDS011;5625;50.122;19.864;2022-11-15T09:23:50;18.97;;;16.40;;
11141;SDS011;5625;50.122;19.864;2022-11-15T09:26:19;18.57;;;15.90;;
11141;SDS011;5625;50.122;19.864;2022-11-15T09:28:47;20.87;;;16.07;;
11141;SDS011;5625;50.122;19.864;2022-11-15T09:31:15;18.47;;;16.20;;
11141;SDS011;5625;50.122;19.864;2022-11-15T09:33:47;20.03;;;16.40;;
11141;SDS011;5625;50.122;19.864;2022-11-15T09:36:22;19.77;;;17.43;;
11141;SDS011;5625;50.122;19.864;2022-11-15T09:38:57;18.20;;;16.27;;
11141;SDS011;5625;50.122;19.864;2022-11-15T09:44:29;24.23;;;18.80;;
11141;SDS011;5625;50.122;19.864;2022-11-15T09:47:23;21.73;;;19.43;;
11141;SDS011;5625;50.122;19.864;2022-11-15T09:50:14;23.70;;;19.70;;
11141;SDS011;5625;50.122;19.864;2022-11-15T09:52:45;22.10;;;19.80;;
11141;SDS011;5625;50.122;19.864;2022-11-15T09:55:13;22.13;;;19.10;;
11141;SDS011;5625;50.122;19.864;2022-11-15T09:57:49;25.23;;;19.70;;
11141;SDS011;5625;50.122;19.864;2022-11-15T10:00:22;23.93;;;19.50;;
11141;SDS011;5625;50.122;19.864;2022-11-15T10:03:13;22.57;;;18.90;;
11141;SDS011;5625;50.122;19.864;2022-11-15T10:05:44;22.83;;;19.40;;
11141;SDS011;5625;50.122;19.864;2022-11-15T10:08:24;22.60;;;18.97;;
11141;SDS011;5625;50.122;19.864;2022-11-15T10:11:00;23.07;;;20.03;;
11141;SDS011;5625;50.122;19.864;2022-11-15T10:13:50;21.17;;;18.50;;
11141;SDS011;5625;50.122;19.864;2022-11-15T10:16:38;21.70;;;18.93;;
11141;SDS011;5625;50.122;19.864;2022-11-15T10:19:21;21.07;;;18.60;;
11141;SDS011;5625;50.122;19.864;2022-11-15T10:21:59;22.97;;;19.33;;
11141;SDS011;5625;50.122;19.864;2022-11-15T10:24:35;23.40;;;20.67;;
11141;SDS011;5625;50.122;19.864;2022-11-15T10:27:09;24.03;;;21.07;;
11141;SDS011;5625;50.122;19.864;2022-11-15T10:29:45;25.53;;;21.70;;
11141;SDS011;5625;50.122;19.864;2022-11-15T10:32:17;25.57;;;21.80;;
11141;SDS011;5625;50.122;19.864;2022-11-15T10:34:47;28.47;;;22.87;;
11141;SDS011;5625;50.122;19.864;2022-11-15T10:37:26;29.30;;;22.60;;
11141;SDS011;5625;50.122;19.864;2022-11-15T10:40:04;28.63;;;23.70;;
11141;SDS011;5625;50.122;19.864;2022-11-15T10:42:34;33.33;;;25.57;;
11141;SDS011;5625;50.122;19.864;2022-11-15T10:45:06;34.63;;;25.93;;
11141;SDS011;5625;50.122;19.864;2022-11-15T10:47:51;32.13;;;24.80;;
11141;SDS011;5625;50.122;19.864;2022-11-15T10:50:27;34.33;;;26.40;;
11141;SDS011;5625;50.122;19.864;2022-11-15T10:52:56;36.60;;;26.43;;
11141;SDS011;5625;50.122;19.864;2022-11-15T10:55:33;37.33;;;27.03;;
11141;SDS011;5625;50.122;19.864;2022-11-15T10:58:03;31.33;;;24.80;;
11141;SDS011;5625;50.122;19.864;2022-11-15T11:00:34;33.43;;;25.40;;
11141;SDS011;5625;50.122;19.864;2022-11-15T11:03:05;30.80;;;24.97;;
11141;SDS011;5625;50.122;19.864;2022-11-15T11:05:47;31.90;;;24.07;;
11141;SDS011;5625;50.122;19.864;2022-11-15T11:08:20;34.23;;;25.73;;
11141;SDS011;5625;50.122;19.864;2022-11-15T11:10:56;34.90;;;24.83;;
11141;SDS011;5625;50.122;19.864;2022-11-15T11:13:29;35.90;;;25.43;;
11141;SDS011;5625;50.122;19.864;2022-11-15T11:16:00;32.83;;;24.27;;
11141;SDS011;5625;50.122;19.864;2022-11-15T11:18:46;35.33;;;26.00;;
11141;SDS011;5625;50.122;19.864;2022-11-15T11:21:23;32.43;;;25.03;;
11141;SDS011;5625;50.122;19.864;2022-11-15T11:24:06;33.77;;;25.60;;
11141;SDS011;5625;50.122;19.864;2022-11-15T11:26:53;36.77;;;26.57;;
11141;SDS011;5625;50.122;19.864;2022-11-15T11:29:32;31.50;;;25.60;;
11141;SDS011;5625;50.122;19.864;2022-11-15T11:32:16;34.83;;;26.83;;
11141;SDS011;5625;50.122;19.864;2022-11-15T11:34:58;31.00;;;25.93;;
11141;SDS011;5625;50.122;19.864;2022-11-15T11:37:35;31.77;;;26.07;;
11141;SDS011;5625;50.122;19.864;2022-11-15T11:40:16;31.37;;;24.77;;
11141;SDS011;5625;50.122;19.864;2022-11-15T11:43:00;31.40;;;25.77;;
11141;SDS011;5625;50.122;19.864;2022-11-15T11:48:40;31.43;;;25.33;;
11141;SDS011;5625;50.122;19.864;2022-11-15T11:51:15;32.07;;;26.23;;
11141;SDS011;5625;50.122;19.864;2022-11-15T11:53:47;33.37;;;25.37;;
11141;SDS011;5625;50.122;19.864;2022-11-15T11:56:25;39.70;;;25.80;;
11141;SDS011;5625;50.122;19.864;2022-11-15T11:58:59;31.47;;;25.57;;
11141;SDS011;5625;50.122;19.864;2022-11-15T12:01:32;30.27;;;25.23;;
11141;SDS011;5625;50.122;19.864;2022-11-15T12:04:04;36.40;;;25.23;;
11141;SDS011;5625;50.122;19.864;2022-11-15T12:06:47;29.47;;;24.63;;
11141;SDS011;5625;50.122;19.864;2022-11-15T12:09:21;33.47;;;25.60;;
11141;SDS011;5625;50.122;19.864;2022-11-15T12:11:55;31.87;;;25.87;;
11141;SDS011;5625;50.122;19.864;2022-11-15T12:14:31;33.33;;;26.40;;
11141;SDS011;5625;50.122;19.864;2022-11-15T12:17:03;32.83;;;25.60;;
11141;SDS011;5625;50.122;19.864;2022-11-15T12:19:44;38.37;;;27.07;;
11141;SDS011;5625;50.122;19.864;2022-11-15T12:22:20;39.63;;;28.07;;
11141;SDS011;5625;50.122;19.864;2022-11-15T12:24:51;36.67;;;29.47;;
11141;SDS011;5625;50.122;19.864;2022-11-15T12:27:29;38.87;;;27.60;;
11141;SDS011;5625;50.122;19.864;2022-11-15T12:30:04;39.33;;;31.47;;
11141;SDS011;5625;50.122;19.864;2022-11-15T12:32:39;42.83;;;30.90;;
11141;SDS011;5625;50.122;19.864;2022-11-15T12:35:26;43.10;;;29.93;;
11141;SDS011;5625;50.122;19.864;2022-11-15T12:38:00;42.23;;;30.90;;
11141;SDS011;5625;50.122;19.864;2022-11-15T12:40:35;42.87;;;31.70;;
11141;SDS011;5625;50.122;19.864;2022-11-15T12:46:10;36.87;;;29.07;;
11141;SDS011;5625;50.122;19.864;2022-11-15T12:48:51;39.33;;;29.23;;
11141;SDS011;5625;50.122;19.864;2022-11-15T12:57:29;37.17;;;28.57;;
11141;SDS011;5625;50.122;19.864;2022-11-15T13:00:05;38.47;;;29.10;;
11141;SDS011;5625;50.122;19.864;2022-11-15T13:08:58;38.27;;;26.77;;
11141;SDS011;5625;50.122;19.864;2022-11-15T13:11:47;37.27;;;27.87;;
11141;SDS011;5625;50.122;19.864;2022-11-15T13:20:19;35.63;;;26.73;;
11141;SDS011;5625;50.122;19.864;2022-11-15T13:22:50;34.80;;;27.70;;
11141;SDS011;5625;50.122;19.864;2022-11-15T13:28:22;35.03;;;27.53;;
11141;SDS011;5625;50.122;19.864;2022-11-15T13:30:58;36.90;;;27.43;;
11141;SDS011;5625;50.122;19.864;2022-11-15T13:33:29;39.63;;;28.90;;
11141;SDS011;5625;50.122;19.864;2022-11-15T13:36:03;39.70;;;28.53;;
11141;SDS011;5625;50.122;19.864;2022-11-15T13:38:35;38.00;;;28.73;;
11141;SDS011;5625;50.122;19.864;2022-11-15T13:41:16;38.30;;;29.40;;
11141;SDS011;5625;50.122;19.864;2022-11-15T13:43:52;38.13;;;29.13;;
11141;SDS011;5625;50.122;19.864;2022-11-15T13:46:22;40.50;;;28.87;;
11141;SDS011;5625;50.122;19.864;2022-11-15T13:48:53;36.47;;;30.47;;
11141;SDS011;5625;50.122;19.864;2022-11-15T13:51:35;40.10;;;29.93;;
11141;SDS011;5625;50.122;19.864;2022-11-15T13:54:08;39.60;;;30.17;;
11141;SDS011;5625;50.122;19.864;2022-11-15T13:56:43;38.73;;;29.70;;
11141;SDS011;5625;50.122;19.864;2022-11-15T13:59:14;40.30;;;29.63;;
11141;SDS011;5625;50.122;19.864;2022-11-15T14:01:46;39.27;;;30.37;;
11141;SDS011;5625;50.122;19.864;2022-11-15T14:04:23;40.67;;;31.13;;
11141;SDS011;5625;50.122;19.864;2022-11-15T14:06:57;37.13;;;28.50;;
11141;SDS011;5625;50.122;19.864;2022-11-15T14:09:34;36.80;;;30.20;;
11141;SDS011;5625;50.122;19.864;2022-11-15T14:14:54;44.30;;;31.53;;
11141;SDS011;5625;50.122;19.864;2022-11-15T14:17:33;38.03;;;30.60;;
11141;SDS011;5625;50.122;19.864;2022-11-15T14:22:55;42.80;;;32.73;;
11141;SDS011;5625;50.122;19.864;2022-11-15T14:25:31;42.93;;;32.93;;
11141;SDS011;5625;50.122;19.864;2022-11-15T14:28:09;46.13;;;33.23;;
11141;SDS011;5625;50.122;19.864;2022-11-15T14:30:42;43.37;;;31.83;;
11141;SDS011;5625;50.122;19.864;2022-11-15T14:33:20;47.60;;;32.67;;
11141;SDS011;5625;50.122;19.864;2022-11-15T14:36:01;44.03;;;33.27;;
11141;SDS011;5625;50.122;19.864;2022-11-15T14:38:32;46.47;;;33.97;;
11141;SDS011;5625;50.122;19.864;2022-11-15T14:41:01;42.73;;;33.33;;
11141;SDS011;5625;50.122;19.864;2022-11-15T14:43:30;44.20;;;31.60;;
11141;SDS011;5625;50.122;19.864;2022-11-15T14:45:58;43.40;;;32.73;;
11141;SDS011;5625;50.122;19.864;2022-11-15T14:48:26;47.07;;;33.40;;
11141;SDS011;5625;50.122;19.864;2022-11-15T14:50:55;45.57;;;34.47;;
11141;SDS011;5625;50.122;19.864;2022-11-15T14:53:24;47.63;;;33.90;;
11141;SDS011;5625;50.122;19.864;2022-11-15T14:55:53;44.33;;;32.80;;
11141;SDS011;5625;50.122;19.864;2022-11-15T14:58:21;48.20;;;33.10;;
11141;SDS011;5625;50.122;19.864;2022-11-15T15:00:49;49.20;;;35.63;;
11141;SDS011;5625;50.122;19.864;2022-11-15T15:03:17;53.33;;;33.70;;
11141;SDS011;5625;50.122;19.864;2022-11-15T15:05:45;45.93;;;32.03;;
11141;SDS011;5625;50.122;19.864;2022-11-15T15:08:13;43.97;;;33.50;;
11141;SDS011;5625;50.122;19.864;2022-11-15T15:10:44;43.37;;;34.37;;
11141;SDS011;5625;50.122;19.864;2022-11-15T15:13:16;44.40;;;33.60;;
11141;SDS011;5625;50.122;19.864;2022-11-15T15:15:46;43.63;;;34.17;;
11141;SDS011;5625;50.122;19.864;2022-11-15T15:18:15;44.10;;;33.90;;
11141;SDS011;5625;50.122;19.864;2022-11-15T15:20:47;42.80;;;35.27;;
11141;SDS011;5625;50.122;19.864;2022-11-15T15:23:20;44.20;;;33.60;;
11141;SDS011;5625;50.122;19.864;2022-11-15T15:25:50;44.37;;;34.60;;
11141;SDS011;5625;50.122;19.864;2022-11-15T15:28:27;43.47;;;33.93;;
11141;SDS011;5625;50.122;19.864;2022-11-15T15:30:59;46.63;;;34.13;;
11141;SDS011;5625;50.122;19.864;2022-11-15T15:33:27;45.67;;;35.40;;